AirNav   Air Wisconsin pilot careers
 
 1641 users online  

KLOR Lowe Army Heliport (Fort Rucker)
Fort Rucker/Ozark, Alabama, USA

GOING TO FORT RUCKER/OZARK?


FAA INFORMATION EFFECTIVE 28 FEBRUARY 2019

Location

FAA Identifier: LOR
Lat/Long: 31-21-21.0000N / 085-45-04.2000W
31-21.350000N / 085-45.070000W
31.3558333 / -85.7511667
(estimated)
Elevation: 294.3 ft. / 90 m (estimated)
Variation: 03W (2010)
From city: 3 miles W of FORT RUCKER OZARK, AL
Time zone: UTC -6 (UTC -5 during Daylight Saving Time)
Zip code: 36362

Heliport Operations

Heliport use: Private use. Permission required prior to landing
Control tower: yes
ARTCC: JACKSONVILLE CENTER
FSS: ANNISTON FLIGHT SERVICE STATION
NOTAMs facility: OZR (NOTAM-D service available)
Attendance: MON-FRI 0700-0100, EXCP HOL
Pattern altitude: 1094.3 ft. MSL
Segmented circle: no
Lights: SS-SR
Beacon: white-green (lighted land airport)
Operates sunset to sunrise.

Heliport Communications

ATIS: 361.1
LOWE GROUND: 357.15 [0700-0100 MON-FRI EXCP HOLS]
LOWE TOWER: 141.3 289.15 46.95FM [0700-0100 MON-FRI EXCP HOLS]
CAIRNS APPROACH: 133.45
CAIRNS DEPARTURE: 133.45
EMERG: 243.0
WX AWOS-3PT at EDN (8 nm SW): 118.9 (334-347-3524)
WX ASOS at DHN (16 nm E): PHONE 334-983-5999
  • APCH/DEP SVCS PRVDD BY JACKSONVILLE ARTCC ON FREQS 134.3/353.5 (DOTHAN RCAG) WHEN CAIRNS APCH/DEP CLSD.

Nearby radio navigation aids

VOR radial/distance  VOR name  Freq  Var
HEYr261/(5.2)HANCHEY VOR110.6003W
OZRr349/5.4CAIRNS VOR/DME111.2003W
EDNr068/(8.5)ENTERPRISE VOR116.6003W
RRSr283/16.9WIREGRASS VORTAC111.6002E

 
NDB name  Hdg/Dist  Freq  Var  ID
LOWEat field26903WLOR .-.. --- .-.
HANCHEY259/5.122103WHYE .... -.-- .
RUCKR026/8.521203WOZ --- --..
BOLL WEEVIL088/11.935203WBVG -... ...- --.
JUDD087/32.926402WJUY .--- ..- -.--
BLOOD152/33.836504WTOI - --- ..
SOYYA319/39.732902WSMY ... -- -.--

Heliport Services

Runway Information

Helipad H1

Dimensions: 50 x 50 ft. / 15 x 15 m
Surface: asphalt
Latitude: 31-21.624517N
Longitude: 085-45.336950W
Elevation: 282.2 ft.
Traffic pattern: leftleft

Helipad H10

Dimensions: 50 x 50 ft. / 15 x 15 m
Surface: asphalt/concrete
Latitude: 31-21.578583N
Longitude: 085-45.336433W
Elevation: 282.5 ft.
Traffic pattern: leftleft

Helipad H11

Dimensions: 50 x 50 ft. / 15 x 15 m
Surface: asphalt
Latitude: 31-21.288733N
Longitude: 085-44.763017W
Elevation: 242.8 ft.
Traffic pattern: leftleft

Helipad H12

Dimensions: 50 x 50 ft. / 15 x 15 m
Surface: asphalt
Latitude: 31-20.907567N
Longitude: 085-44.863250W
Elevation: 243.5 ft.
Traffic pattern: leftleft

Helipad H2

Dimensions: 50 x 50 ft. / 15 x 15 m
Surface: asphalt
Latitude: 31-21.529133N
Longitude: 085-45.335850W
Elevation: 280.8 ft.
Traffic pattern: leftleft

Helipad H3

Dimensions: 50 x 50 ft. / 15 x 15 m
Surface: asphalt
Latitude: 31-21.498700N
Longitude: 085-44.886950W
Elevation: 273.9 ft.
Traffic pattern: leftleft

Helipad H4

Dimensions: 50 x 50 ft. / 15 x 15 m
Surface: asphalt
Latitude: 31-21.318950N
Longitude: 085-44.787000W
Elevation: 243.1 ft.
Traffic pattern: leftleft

Helipad H5

Dimensions: 50 x 50 ft. / 15 x 15 m
Surface: asphalt
Latitude: 31-20.907600N
Longitude: 085-44.905550W
Elevation: 243.5 ft.
Traffic pattern: leftleft

Helipad H6

Dimensions: 50 x 50 ft. / 15 x 15 m
Surface: asphalt
Latitude: 31-21.168317N
Longitude: 085-45.125317W
Elevation: 240.6 ft.
Traffic pattern: leftleft

Helipad H7

Dimensions: 50 x 50 ft. / 15 x 15 m
Surface: asphalt
Latitude: 31-21.135150N
Longitude: 085-45.099467W
Elevation: 239.3 ft.
Traffic pattern: leftleft

Helipad H8

Dimensions: 50 x 50 ft. / 15 x 15 m
Surface: asphalt
Latitude: 31-21.591100N
Longitude: 085-44.935900W
Elevation: 293.9 ft.
Traffic pattern: leftleft

Helipad H9

Dimensions: 50 x 50 ft. / 15 x 15 m
Surface: asphalt
Latitude: 31-21.103850N
Longitude: 085-45.074067W
Elevation: 238.7 ft.
Traffic pattern: leftleft

Heliport Ownership and Management from official FAA records

Ownership: U.S. Army
Owner: US ARMY LOWE ARMY HELIPAD
9325 GUNSTON ROAD
FT BELVOIR, VA 22060
Manager: Phone 205-255-2086

Additional Remarks

HELIPADS LOCATED ON ENDS OF RWYS.
FUEL: J8
SEE FLIP AP/1, FLT HAZ, FORT RUCKER.
RSTD - NO TRAN ACFT. NO USABLE RWY ON LOWE AHP AT THIS TIME.
CAUTION: INTS STU TRNG.
WX SVC AVAIL 1200-2000Z++ MON-FRI EXC HOL. PMSV METRO 243.35

Instrument Procedures

NOTE: All procedures below are presented as PDF files. If you need a reader for these files, you should download the free Adobe Reader.

NOT FOR NAVIGATION. Please procure official charts for flight.
FAA instrument procedures published for use from 28 February 2019 at 0901Z to 28 March 2019 at 0900Z.

 
IAPs - Instrument Approach Procedures
COPTER RNAV (GPS) 069   download (77KB)
COPTER VOR 069   download (82KB)
COPTER NDB 066   download (84KB)
NOTE: Special Take-Off Minimums/Departure Procedures apply   download (329KB)

Other nearby airports with instrument procedures:

KHEY - Hanchey Army Heliport (Fort Rucker) (5 nm E)
KOZR - Cairns Army Airfield (Fort Rucker) (5 nm S)
71J - Ozark-Blackwell Field Airport (8 nm NE)
KEDN - Enterprise Municipal Airport (8 nm SW)
KDHN - Dothan Regional Airport (16 nm E)
33J - Geneva Municipal Airport (19 nm S)
 
Loc | Ops | Rwys | IFR | FBO | Links
Com | Nav | Svcs | Stats | Notes
Area around KLOR (Lowe Army Heliport (Fort Rucker))
 
Road maps at: MapQuest Bing Google
 
Aerial photo
WARNING: Photo may not be current or correct
Aerial photo of KLOR (Lowe Army Heliport (Fort Rucker))
Do you have a better or more recent aerial photo of Lowe Army Heliport (Fort Rucker) that you would like to share? If so, please send us your photo.

 
Sectional chart

 
Airport distance calculator
Flying to Lowe Army Heliport (Fort Rucker)? Find the distance to fly.

From to KLOR

Sunrise and sunset
Times for 26-Mar-2019
 Local
(UTC-5)
 Zulu
(UTC)
Morning civil twilight06:1611:16
Sunrise06:4011:40
Sunset18:5723:57
Evening civil twilight19:2200:22

Current date and time
Zulu (UTC)  26-Mar-2019 15:22:10
Local (UTC-5)  26-Mar-2019 10:22:10
 
METAR
KLOR 261458Z AUTO 33011KT 10SM FEW032 16/10 A3011 RMK AO2 SLP178 T01630101 52011
KOZR 
5nm S 
261456Z AUTO 34011KT 10SM CLR 17/10 A3010 RMK AO2 SLP194 T01650099 52012
KHEY 
5nm E 
261458Z AUTO 36007KT 10SM FEW025 16/10 A3009 RMK AO2 SLP190 T01630101 52011
KSXS 
5nm W 
261458Z AUTO 02010KT 10SM SCT022 SCT031 16/10 A3010 RMK AO2 SLP193 T01620098 52012
KEDN 
8nm SW 
261455Z AUTO 35007KT 310V010 10SM CLR 15/10 A3011 RMK AO2 60001 T01460104
KDHN 
16nm E 
261453Z 35012KT 10SM FEW020 17/10 A3012 RMK AO2 SLP198 T01670100 51010
TAF
KOZR 
5nm S 
260800Z 2608/2714 33006KT 8000 BR SCT020 BKN030 QNH3000INS BECMG 2611/2612 33006KT 8000 BR SCT010 BKN020 QNH3009INS BECMG 2617/2618 33010G15KT 9999 NSW BKN030 QNH3015INS BECMG 2700/2701 36009KT 9999 SCT015 BKN030 QNH3021INS BECMG 2708/2709 03009KT 9999 BKN015 QNH3026INS TX19/2619Z TN10/2612Z
KDHN 
16nm E 
261120Z 2612/2712 33010KT P6SM SCT045 FM270200 36010KT P6SM VCSH OVC050 FM270600 04008KT P6SM SCT050
NOTAMs
Click for the latest NOTAMs
NOTAMs are issued by the DoD/FAA and will open in a separate window not controlled by AirNav.

 

 
 

Would you like to see your business listed on this page?

 If your business provides an interesting product or service to pilots, flight crews, aircraft, or users of the Lowe Army Heliport (Fort Rucker), you should consider listing it here.  To start the listing process, click on the button below
 
Add a business
 

Other Pages about Lowe Army Heliport (Fort Rucker)

Update a link
 
Copyright © AirNav, LLC. All rights reserved. Privacy Policy  Contact